sensor_id;sensor_type;location;lat;lon;timestamp;temperature;humidity
31729;DHT22;18309;43.658;1.312;2023-05-10T00:01:04;15.20;99.90
31729;DHT22;18309;43.658;1.312;2023-05-10T00:03:30;15.10;99.90
31729;DHT22;18309;43.658;1.312;2023-05-10T00:05:56;15.10;99.90
31729;DHT22;18309;43.658;1.312;2023-05-10T00:08:22;15.10;99.90
31729;DHT22;18309;43.658;1.312;2023-05-10T00:10:48;15.10;99.90
31729;DHT22;18309;43.658;1.312;2023-05-10T00:13:14;15.00;99.90
31729;DHT22;18309;43.658;1.312;2023-05-10T00:15:40;15.00;99.90
31729;DHT22;18309;43.658;1.312;2023-05-10T00:18:06;15.00;99.90
31729;DHT22;18309;43.658;1.312;2023-05-10T00:20:31;15.00;99.90
31729;DHT22;18309;43.658;1.312;2023-05-10T00:22:57;15.00;99.90
31729;DHT22;18309;43.658;1.312;2023-05-10T00:25:23;14.90;99.90
31729;DHT22;18309;43.658;1.312;2023-05-10T00:27:48;14.90;99.90
31729;DHT22;18309;43.658;1.312;2023-05-10T00:30:15;14.90;99.90
31729;DHT22;18309;43.658;1.312;2023-05-10T00:32:41;14.80;99.90
31729;DHT22;18309;43.658;1.312;2023-05-10T00:35:08;14.80;99.90
31729;DHT22;18309;43.658;1.312;2023-05-10T00:37:34;14.80;99.90
31729;DHT22;18309;43.658;1.312;2023-05-10T00:39:59;14.80;99.90
31729;DHT22;18309;43.658;1.312;2023-05-10T00:42:25;14.80;99.90
31729;DHT22;18309;43.658;1.312;2023-05-10T00:44:51;14.70;99.90
31729;DHT22;18309;43.658;1.312;2023-05-10T00:47:16;14.70;99.90
31729;DHT22;18309;43.658;1.312;2023-05-10T00:49:43;14.70;99.90
31729;DHT22;18309;43.658;1.312;2023-05-10T00:52:09;14.70;99.90
31729;DHT22;18309;43.658;1.312;2023-05-10T00:54:35;14.70;99.90
31729;DHT22;18309;43.658;1.312;2023-05-10T00:57:01;14.70;99.90
31729;DHT22;18309;43.658;1.312;2023-05-10T00:59:29;14.70;99.90
31729;DHT22;18309;43.658;1.312;2023-05-10T01:01:55;14.70;99.90
31729;DHT22;18309;43.658;1.312;2023-05-10T01:04:20;14.60;99.90
31729;DHT22;18309;43.658;1.312;2023-05-10T01:06:51;14.60;99.90
31729;DHT22;18309;43.658;1.312;2023-05-10T01:09:17;14.60;99.90
31729;DHT22;18309;43.658;1.312;2023-05-10T01:11:43;14.60;99.90
31729;DHT22;18309;43.658;1.312;2023-05-10T01:14:09;14.60;99.90
31729;DHT22;18309;43.658;1.312;2023-05-10T01:16:40;14.60;99.90
31729;DHT22;18309;43.658;1.312;2023-05-10T01:19:17;14.60;99.90
31729;DHT22;18309;43.658;1.312;2023-05-10T01:33:11;14.40;99.90
31729;DHT22;18309;43.658;1.312;2023-05-10T01:38:43;14.40;99.90
31729;DHT22;18309;43.658;1.312;2023-05-10T01:41:36;14.40;99.90
31729;DHT22;18309;43.658;1.312;2023-05-10T01:44:16;14.40;99.90
31729;DHT22;18309;43.658;1.312;2023-05-10T01:46:43;14.40;99.90
31729;DHT22;18309;43.658;1.312;2023-05-10T01:49:24;14.40;99.90
31729;DHT22;18309;43.658;1.312;2023-05-10T01:51:53;14.40;99.90
31729;DHT22;18309;43.658;1.312;2023-05-10T01:54:21;14.30;99.90
31729;DHT22;18309;43.658;1.312;2023-05-10T01:56:52;14.30;99.90
31729;DHT22;18309;43.658;1.312;2023-05-10T01:59:21;14.30;99.90
31729;DHT22;18309;43.658;1.312;2023-05-10T02:01:48;14.30;99.90
31729;DHT22;18309;43.658;1.312;2023-05-10T02:04:17;14.30;99.90
31729;DHT22;18309;43.658;1.312;2023-05-10T02:06:45;14.30;99.90
31729;DHT22;18309;43.658;1.312;2023-05-10T02:09:12;14.30;99.90
31729;DHT22;18309;43.658;1.312;2023-05-10T02:11:39;14.30;99.90
31729;DHT22;18309;43.658;1.312;2023-05-10T02:14:08;14.20;99.90
31729;DHT22;18309;43.658;1.312;2023-05-10T02:16:35;14.20;99.90
31729;DHT22;18309;43.658;1.312;2023-05-10T02:19:02;14.20;99.90
31729;DHT22;18309;43.658;1.312;2023-05-10T02:21:29;14.20;99.90
31729;DHT22;18309;43.658;1.312;2023-05-10T02:23:57;14.20;99.90
31729;DHT22;18309;43.658;1.312;2023-05-10T02:26:24;14.20;99.90
31729;DHT22;18309;43.658;1.312;2023-05-10T02:28:53;14.20;99.90
31729;DHT22;18309;43.658;1.312;2023-05-10T02:31:19;14.20;99.90
31729;DHT22;18309;43.658;1.312;2023-05-10T02:33:46;14.20;99.90
31729;DHT22;18309;43.658;1.312;2023-05-10T02:36:13;14.10;99.90
31729;DHT22;18309;43.658;1.312;2023-05-10T02:38:39;14.20;99.90
31729;DHT22;18309;43.658;1.312;2023-05-10T02:41:07;14.20;99.90
31729;DHT22;18309;43.658;1.312;2023-05-10T02:43:35;14.20;99.90
31729;DHT22;18309;43.658;1.312;2023-05-10T02:46:01;14.20;99.90
31729;DHT22;18309;43.658;1.312;2023-05-10T02:48:27;14.10;99.90
31729;DHT22;18309;43.658;1.312;2023-05-10T02:50:55;14.10;99.90
31729;DHT22;18309;43.658;1.312;2023-05-10T02:53:26;14.10;99.90
31729;DHT22;18309;43.658;1.312;2023-05-10T02:55:59;14.10;99.90
31729;DHT22;18309;43.658;1.312;2023-05-10T02:58:25;14.10;99.90
31729;DHT22;18309;43.658;1.312;2023-05-10T03:00:50;14.00;99.90
31729;DHT22;18309;43.658;1.312;2023-05-10T03:03:16;14.00;99.90
31729;DHT22;18309;43.658;1.312;2023-05-10T03:05:42;14.00;99.90
31729;DHT22;18309;43.658;1.312;2023-05-10T03:08:08;14.00;99.90
31729;DHT22;18309;43.658;1.312;2023-05-10T03:10:41;14.00;99.90
31729;DHT22;18309;43.658;1.312;2023-05-10T03:13:21;14.00;99.90
31729;DHT22;18309;43.658;1.312;2023-05-10T03:15:58;14.00;99.90
31729;DHT22;18309;43.658;1.312;2023-05-10T03:21:22;13.90;99.90
31729;DHT22;18309;43.658;1.312;2023-05-10T03:23:58;13.90;99.90
31729;DHT22;18309;43.658;1.312;2023-05-10T03:26:26;13.90;99.90
31729;DHT22;18309;43.658;1.312;2023-05-10T03:28:52;13.90;99.90
31729;DHT22;18309;43.658;1.312;2023-05-10T03:31:19;13.90;99.90
31729;DHT22;18309;43.658;1.312;2023-05-10T03:33:49;13.90;99.90
31729;DHT22;18309;43.658;1.312;2023-05-10T03:36:14;13.90;99.90
31729;DHT22;18309;43.658;1.312;2023-05-10T03:38:40;13.90;99.90
31729;DHT22;18309;43.658;1.312;2023-05-10T03:41:06;13.80;99.90
31729;DHT22;18309;43.658;1.312;2023-05-10T03:43:32;13.80;99.90
31729;DHT22;18309;43.658;1.312;2023-05-10T03:45:57;13.80;99.90
31729;DHT22;18309;43.658;1.312;2023-05-10T03:48:23;13.80;99.90
31729;DHT22;18309;43.658;1.312;2023-05-10T03:50:49;13.80;99.90
31729;DHT22;18309;43.658;1.312;2023-05-10T03:53:15;13.80;99.90
31729;DHT22;18309;43.658;1.312;2023-05-10T03:55:41;13.80;99.90
31729;DHT22;18309;43.658;1.312;2023-05-10T03:58:06;13.80;99.90
31729;DHT22;18309;43.658;1.312;2023-05-10T04:00:32;13.80;99.90
31729;DHT22;18309;43.658;1.312;2023-05-10T04:02:58;13.70;99.90
31729;DHT22;18309;43.658;1.312;2023-05-10T04:05:24;13.70;99.90
31729;DHT22;18309;43.658;1.312;2023-05-10T04:07:49;13.70;99.90
31729;DHT22;18309;43.658;1.312;2023-05-10T04:10:16;13.70;99.90
31729;DHT22;18309;43.658;1.312;2023-05-10T04:12:42;13.70;99.90
31729;DHT22;18309;43.658;1.312;2023-05-10T04:15:08;13.70;99.90
31729;DHT22;18309;43.658;1.312;2023-05-10T04:17:34;13.70;99.90
31729;DHT22;18309;43.658;1.312;2023-05-10T04:19:59;13.70;99.90
31729;DHT22;18309;43.658;1.312;2023-05-10T04:22:25;13.70;99.90
31729;DHT22;18309;43.658;1.312;2023-05-10T04:24:51;13.70;99.90
31729;DHT22;18309;43.658;1.312;2023-05-10T04:27:16;13.60;99.90
31729;DHT22;18309;43.658;1.312;2023-05-10T04:29:42;13.60;99.90
31729;DHT22;18309;43.658;1.312;2023-05-10T04:32:08;13.60;99.90
31729;DHT22;18309;43.658;1.312;2023-05-10T04:34:36;13.60;99.90
31729;DHT22;18309;43.658;1.312;2023-05-10T04:37:01;13.60;99.90
31729;DHT22;18309;43.658;1.312;2023-05-10T04:39:27;13.60;99.90
31729;DHT22;18309;43.658;1.312;2023-05-10T04:41:53;13.60;99.90
31729;DHT22;18309;43.658;1.312;2023-05-10T04:44:18;13.60;99.90
31729;DHT22;18309;43.658;1.312;2023-05-10T04:46:44;13.60;99.90
31729;DHT22;18309;43.658;1.312;2023-05-10T04:49:09;13.60;99.90
31729;DHT22;18309;43.658;1.312;2023-05-10T04:51:35;13.50;99.90
31729;DHT22;18309;43.658;1.312;2023-05-10T04:54:01;13.50;99.90
31729;DHT22;18309;43.658;1.312;2023-05-10T04:56:26;13.50;99.90
31729;DHT22;18309;43.658;1.312;2023-05-10T04:58:52;13.50;99.90
31729;DHT22;18309;43.658;1.312;2023-05-10T05:01:18;13.50;99.90
31729;DHT22;18309;43.658;1.312;2023-05-10T05:03:43;13.50;99.90
31729;DHT22;18309;43.658;1.312;2023-05-10T05:06:09;13.50;99.90
31729;DHT22;18309;43.658;1.312;2023-05-10T05:08:35;13.50;99.90
31729;DHT22;18309;43.658;1.312;2023-05-10T05:11:00;13.40;99.90
31729;DHT22;18309;43.658;1.312;2023-05-10T05:13:26;13.40;99.90
31729;DHT22;18309;43.658;1.312;2023-05-10T05:15:52;13.40;99.90
31729;DHT22;18309;43.658;1.312;2023-05-10T05:18:18;13.40;99.90
31729;DHT22;18309;43.658;1.312;2023-05-10T05:20:44;13.40;99.90
31729;DHT22;18309;43.658;1.312;2023-05-10T05:23:10;13.30;99.90
31729;DHT22;18309;43.658;1.312;2023-05-10T05:25:35;13.40;99.90
31729;DHT22;18309;43.658;1.312;2023-05-10T05:28:01;13.30;99.90
31729;DHT22;18309;43.658;1.312;2023-05-10T05:30:27;13.30;99.90
31729;DHT22;18309;43.658;1.312;2023-05-10T05:32:53;13.30;99.90
31729;DHT22;18309;43.658;1.312;2023-05-10T05:35:18;13.30;99.90
31729;DHT22;18309;43.658;1.312;2023-05-10T05:37:44;13.30;99.90
31729;DHT22;18309;43.658;1.312;2023-05-10T05:40:12;13.30;99.90
31729;DHT22;18309;43.658;1.312;2023-05-10T05:42:38;13.30;99.90
31729;DHT22;18309;43.658;1.312;2023-05-10T05:45:04;13.30;99.90
31729;DHT22;18309;43.658;1.312;2023-05-10T05:47:30;13.30;99.90
31729;DHT22;18309;43.658;1.312;2023-05-10T05:49:56;13.30;99.90
31729;DHT22;18309;43.658;1.312;2023-05-10T05:52:22;13.30;99.90
31729;DHT22;18309;43.658;1.312;2023-05-10T05:54:47;13.30;99.90
31729;DHT22;18309;43.658;1.312;2023-05-10T05:57:13;13.30;99.90
31729;DHT22;18309;43.658;1.312;2023-05-10T05:59:39;13.30;99.90
31729;DHT22;18309;43.658;1.312;2023-05-10T06:02:10;13.30;99.90
31729;DHT22;18309;43.658;1.312;2023-05-10T06:04:36;13.30;99.90
31729;DHT22;18309;43.658;1.312;2023-05-10T06:07:01;13.30;99.90
31729;DHT22;18309;43.658;1.312;2023-05-10T06:09:27;13.30;99.90
31729;DHT22;18309;43.658;1.312;2023-05-10T06:11:53;13.30;99.90
31729;DHT22;18309;43.658;1.312;2023-05-10T06:14:20;13.30;99.90
31729;DHT22;18309;43.658;1.312;2023-05-10T06:16:46;13.40;99.90
31729;DHT22;18309;43.658;1.312;2023-05-10T06:19:12;13.40;99.90
31729;DHT22;18309;43.658;1.312;2023-05-10T06:21:37;13.30;99.90
31729;DHT22;18309;43.658;1.312;2023-05-10T06:24:03;13.40;99.90
31729;DHT22;18309;43.658;1.312;2023-05-10T06:26:29;13.40;99.90
31729;DHT22;18309;43.658;1.312;2023-05-10T06:28:55;13.30;99.90
31729;DHT22;18309;43.658;1.312;2023-05-10T06:31:21;13.40;99.90
31729;DHT22;18309;43.658;1.312;2023-05-10T06:33:46;13.40;99.90
31729;DHT22;18309;43.658;1.312;2023-05-10T06:36:12;13.40;99.90
31729;DHT22;18309;43.658;1.312;2023-05-10T06:38:38;13.40;99.90
31729;DHT22;18309;43.658;1.312;2023-05-10T06:41:04;13.40;99.90
31729;DHT22;18309;43.658;1.312;2023-05-10T06:43:31;13.40;99.90
31729;DHT22;18309;43.658;1.312;2023-05-10T06:45:57;13.40;99.90
31729;DHT22;18309;43.658;1.312;2023-05-10T06:48:22;13.50;99.90
31729;DHT22;18309;43.658;1.312;2023-05-10T06:50:48;13.40;99.90
31729;DHT22;18309;43.658;1.312;2023-05-10T06:53:14;13.50;99.90
31729;DHT22;18309;43.658;1.312;2023-05-10T06:55:40;13.50;99.90
31729;DHT22;18309;43.658;1.312;2023-05-10T06:58:05;13.50;99.90
31729;DHT22;18309;43.658;1.312;2023-05-10T07:00:31;13.50;99.90
31729;DHT22;18309;43.658;1.312;2023-05-10T07:02:57;13.50;99.90
31729;DHT22;18309;43.658;1.312;2023-05-10T07:05:23;13.50;99.90
31729;DHT22;18309;43.658;1.312;2023-05-10T07:07:49;13.60;99.90
31729;DHT22;18309;43.658;1.312;2023-05-10T07:10:15;13.60;99.90
31729;DHT22;18309;43.658;1.312;2023-05-10T07:12:41;13.60;99.90
31729;DHT22;18309;43.658;1.312;2023-05-10T07:15:07;13.60;99.90
31729;DHT22;18309;43.658;1.312;2023-05-10T07:17:33;13.60;99.90
31729;DHT22;18309;43.658;1.312;2023-05-10T07:19:59;13.70;99.90
31729;DHT22;18309;43.658;1.312;2023-05-10T07:22:25;13.70;99.90
31729;DHT22;18309;43.658;1.312;2023-05-10T07:24:51;13.70;99.90
31729;DHT22;18309;43.658;1.312;2023-05-10T07:27:17;13.70;99.90
31729;DHT22;18309;43.658;1.312;2023-05-10T07:29:42;13.80;99.90
31729;DHT22;18309;43.658;1.312;2023-05-10T07:32:08;13.80;99.90
31729;DHT22;18309;43.658;1.312;2023-05-10T07:34:34;13.80;99.90
31729;DHT22;18309;43.658;1.312;2023-05-10T07:36:59;13.90;99.90
31729;DHT22;18309;43.658;1.312;2023-05-10T07:39:26;13.90;99.90
31729;DHT22;18309;43.658;1.312;2023-05-10T07:41:52;13.90;99.90
31729;DHT22;18309;43.658;1.312;2023-05-10T07:44:18;14.00;99.90
31729;DHT22;18309;43.658;1.312;2023-05-10T07:46:46;14.00;99.90
31729;DHT22;18309;43.658;1.312;2023-05-10T07:49:11;14.00;99.90
31729;DHT22;18309;43.658;1.312;2023-05-10T07:51:37;14.10;99.90
31729;DHT22;18309;43.658;1.312;2023-05-10T07:54:03;14.10;99.90
31729;DHT22;18309;43.658;1.312;2023-05-10T07:56:30;14.20;99.90
31729;DHT22;18309;43.658;1.312;2023-05-10T07:59:01;14.20;99.90
31729;DHT22;18309;43.658;1.312;2023-05-10T08:01:30;14.20;99.90
31729;DHT22;18309;43.658;1.312;2023-05-10T08:03:57;14.20;99.90
31729;DHT22;18309;43.658;1.312;2023-05-10T08:06:22;14.30;99.90
31729;DHT22;18309;43.658;1.312;2023-05-10T08:08:49;14.30;99.90
31729;DHT22;18309;43.658;1.312;2023-05-10T08:11:19;14.30;99.90
31729;DHT22;18309;43.658;1.312;2023-05-10T08:13:46;14.30;99.90
31729;DHT22;18309;43.658;1.312;2023-05-10T08:16:12;14.40;99.90
31729;DHT22;18309;43.658;1.312;2023-05-10T08:18:39;14.40;99.90
31729;DHT22;18309;43.658;1.312;2023-05-10T08:21:06;14.40;99.90
31729;DHT22;18309;43.658;1.312;2023-05-10T08:23:32;14.40;99.90
31729;DHT22;18309;43.658;1.312;2023-05-10T08:25:58;14.50;99.90
31729;DHT22;18309;43.658;1.312;2023-05-10T08:28:24;14.50;99.90
31729;DHT22;18309;43.658;1.312;2023-05-10T08:30:50;14.50;99.90
31729;DHT22;18309;43.658;1.312;2023-05-10T08:33:17;14.50;99.90
31729;DHT22;18309;43.658;1.312;2023-05-10T08:35:43;14.50;99.90
31729;DHT22;18309;43.658;1.312;2023-05-10T08:38:09;14.60;99.90
31729;DHT22;18309;43.658;1.312;2023-05-10T08:40:37;14.60;99.90
31729;DHT22;18309;43.658;1.312;2023-05-10T08:43:07;14.60;99.90
31729;DHT22;18309;43.658;1.312;2023-05-10T08:45:44;14.60;99.90
31729;DHT22;18309;43.658;1.312;2023-05-10T08:48:13;14.70;99.90
31729;DHT22;18309;43.658;1.312;2023-05-10T08:50:41;14.70;99.90
31729;DHT22;18309;43.658;1.312;2023-05-10T08:53:13;14.70;99.90
31729;DHT22;18309;43.658;1.312;2023-05-10T08:55:39;14.80;99.90
31729;DHT22;18309;43.658;1.312;2023-05-10T08:58:09;14.80;99.90
31729;DHT22;18309;43.658;1.312;2023-05-10T09:00:35;14.80;98.70
31729;DHT22;18309;43.658;1.312;2023-05-10T09:03:04;14.80;98.80
31729;DHT22;18309;43.658;1.312;2023-05-10T09:05:30;14.90;98.80
31729;DHT22;18309;43.658;1.312;2023-05-10T09:07:55;14.90;99.30
31729;DHT22;18309;43.658;1.312;2023-05-10T09:10:21;15.00;98.50
31729;DHT22;18309;43.658;1.312;2023-05-10T09:12:48;15.00;97.20
31729;DHT22;18309;43.658;1.312;2023-05-10T09:15:17;15.00;98.10
31729;DHT22;18309;43.658;1.312;2023-05-10T09:17:46;15.10;99.00
31729;DHT22;18309;43.658;1.312;2023-05-10T09:20:11;15.10;98.90
31729;DHT22;18309;43.658;1.312;2023-05-10T09:22:37;15.10;98.90
31729;DHT22;18309;43.658;1.312;2023-05-10T09:25:07;15.20;99.20
31729;DHT22;18309;43.658;1.312;2023-05-10T09:27:34;15.20;99.20
31729;DHT22;18309;43.658;1.312;2023-05-10T09:30:00;15.20;98.60
31729;DHT22;18309;43.658;1.312;2023-05-10T09:32:40;15.20;98.00
31729;DHT22;18309;43.658;1.312;2023-05-10T09:35:14;15.30;98.90
31729;DHT22;18309;43.658;1.312;2023-05-10T09:37:51;15.30;98.70
31729;DHT22;18309;43.658;1.312;2023-05-10T09:40:25;15.30;98.40
31729;DHT22;18309;43.658;1.312;2023-05-10T09:42:58;15.30;98.70
31729;DHT22;18309;43.658;1.312;2023-05-10T09:45:25;15.40;98.40
31729;DHT22;18309;43.658;1.312;2023-05-10T09:47:52;15.40;98.40
31729;DHT22;18309;43.658;1.312;2023-05-10T09:50:18;15.50;98.40
31729;DHT22;18309;43.658;1.312;2023-05-10T09:52:59;15.50;98.30
31729;DHT22;18309;43.658;1.312;2023-05-10T09:55:26;15.50;98.10
31729;DHT22;18309;43.658;1.312;2023-05-10T09:58:03;15.50;97.50
31729;DHT22;18309;43.658;1.312;2023-05-10T10:00:38;15.60;97.30
31729;DHT22;18309;43.658;1.312;2023-05-10T10:03:04;15.60;97.20
31729;DHT22;18309;43.658;1.312;2023-05-10T10:05:32;15.60;97.90
31729;DHT22;18309;43.658;1.312;2023-05-10T10:07:59;15.70;97.20
31729;DHT22;18309;43.658;1.312;2023-05-10T10:10:26;15.80;96.90
31729;DHT22;18309;43.658;1.312;2023-05-10T10:12:52;15.80;96.40
31729;DHT22;18309;43.658;1.312;2023-05-10T10:15:20;15.80;96.40
31729;DHT22;18309;43.658;1.312;2023-05-10T10:17:46;15.80;96.20
31729;DHT22;18309;43.658;1.312;2023-05-10T10:20:14;15.80;97.00
31729;DHT22;18309;43.658;1.312;2023-05-10T10:22:40;15.80;97.00
31729;DHT22;18309;43.658;1.312;2023-05-10T10:25:07;15.80;97.00
31729;DHT22;18309;43.658;1.312;2023-05-10T10:27:43;15.80;97.60
31729;DHT22;18309;43.658;1.312;2023-05-10T10:35:30;15.90;96.70
31729;DHT22;18309;43.658;1.312;2023-05-10T10:37:56;16.00;97.20
31729;DHT22;18309;43.658;1.312;2023-05-10T10:40:30;16.00;97.00
31729;DHT22;18309;43.658;1.312;2023-05-10T10:42:56;16.10;96.30
31729;DHT22;18309;43.658;1.312;2023-05-10T10:45:24;16.10;96.50
31729;DHT22;18309;43.658;1.312;2023-05-10T10:50:44;16.10;96.70
31729;DHT22;18309;43.658;1.312;2023-05-10T10:53:11;16.20;99.90
31729;DHT22;18309;43.658;1.312;2023-05-10T10:55:46;16.20;99.90
31729;DHT22;18309;43.658;1.312;2023-05-10T10:58:29;16.20;99.90
31729;DHT22;18309;43.658;1.312;2023-05-10T11:01:16;16.20;99.90
31729;DHT22;18309;43.658;1.312;2023-05-10T11:06:34;16.20;99.90
31729;DHT22;18309;43.658;1.312;2023-05-10T11:09:10;16.00;99.90
31729;DHT22;18309;43.658;1.312;2023-05-10T11:11:49;15.90;99.90
31729;DHT22;18309;43.658;1.312;2023-05-10T11:14:20;15.80;99.90
31729;DHT22;18309;43.658;1.312;2023-05-10T11:16:47;15.90;99.90
31729;DHT22;18309;43.658;1.312;2023-05-10T11:19:13;15.80;99.90
31729;DHT22;18309;43.658;1.312;2023-05-10T11:24:15;15.80;99.90
31729;DHT22;18309;43.658;1.312;2023-05-10T11:26:41;15.80;99.90
31729;DHT22;18309;43.658;1.312;2023-05-10T11:29:07;15.80;99.90
31729;DHT22;18309;43.658;1.312;2023-05-10T11:31:34;15.80;99.90
31729;DHT22;18309;43.658;1.312;2023-05-10T11:34:00;15.70;99.90
31729;DHT22;18309;43.658;1.312;2023-05-10T11:36:33;15.80;99.90
31729;DHT22;18309;43.658;1.312;2023-05-10T11:38:59;15.70;99.90
31729;DHT22;18309;43.658;1.312;2023-05-10T11:41:27;15.70;99.70
31729;DHT22;18309;43.658;1.312;2023-05-10T11:43:54;15.80;99.60
31729;DHT22;18309;43.658;1.312;2023-05-10T11:46:25;15.80;99.90
31729;DHT22;18309;43.658;1.312;2023-05-10T11:48:53;15.80;99.90
31729;DHT22;18309;43.658;1.312;2023-05-10T11:51:24;15.80;99.50
31729;DHT22;18309;43.658;1.312;2023-05-10T11:53:53;15.80;99.80
31729;DHT22;18309;43.658;1.312;2023-05-10T11:56:19;15.80;99.00
31729;DHT22;18309;43.658;1.312;2023-05-10T11:58:57;15.90;98.70
31729;DHT22;18309;43.658;1.312;2023-05-10T12:01:24;15.90;98.40
31729;DHT22;18309;43.658;1.312;2023-05-10T12:03:51;15.90;97.50
31729;DHT22;18309;43.658;1.312;2023-05-10T12:06:18;15.90;98.00
31729;DHT22;18309;43.658;1.312;2023-05-10T12:08:46;15.90;98.20
31729;DHT22;18309;43.658;1.312;2023-05-10T12:11:13;16.00;97.20
31729;DHT22;18309;43.658;1.312;2023-05-10T12:13:43;16.00;97.20
31729;DHT22;18309;43.658;1.312;2023-05-10T12:16:22;16.00;97.00
31729;DHT22;18309;43.658;1.312;2023-05-10T12:18:49;16.10;97.20
31729;DHT22;18309;43.658;1.312;2023-05-10T12:21:16;16.10;97.60
31729;DHT22;18309;43.658;1.312;2023-05-10T12:23:42;16.10;97.50
31729;DHT22;18309;43.658;1.312;2023-05-10T12:26:10;16.20;97.10
31729;DHT22;18309;43.658;1.312;2023-05-10T12:28:37;16.20;97.20
31729;DHT22;18309;43.658;1.312;2023-05-10T12:31:03;16.20;97.10
31729;DHT22;18309;43.658;1.312;2023-05-10T12:33:40;16.20;97.10
31729;DHT22;18309;43.658;1.312;2023-05-10T12:36:10;16.20;97.00
31729;DHT22;18309;43.658;1.312;2023-05-10T12:38:37;16.30;96.10
31729;DHT22;18309;43.658;1.312;2023-05-10T12:41:08;16.30;96.10
31729;DHT22;18309;43.658;1.312;2023-05-10T12:43:34;16.30;95.00
31729;DHT22;18309;43.658;1.312;2023-05-10T12:46:15;16.30;94.60
31729;DHT22;18309;43.658;1.312;2023-05-10T12:48:42;16.40;94.30
31729;DHT22;18309;43.658;1.312;2023-05-10T12:51:08;16.50;94.70
31729;DHT22;18309;43.658;1.312;2023-05-10T12:53:35;16.50;94.10
31729;DHT22;18309;43.658;1.312;2023-05-10T12:56:02;16.50;93.50
31729;DHT22;18309;43.658;1.312;2023-05-10T12:58:27;16.60;93.30
31729;DHT22;18309;43.658;1.312;2023-05-10T13:00:53;16.60;93.60
31729;DHT22;18309;43.658;1.312;2023-05-10T13:03:19;16.70;94.00
31729;DHT22;18309;43.658;1.312;2023-05-10T13:05:45;16.70;94.70
31729;DHT22;18309;43.658;1.312;2023-05-10T13:08:11;16.80;95.00
31729;DHT22;18309;43.658;1.312;2023-05-10T13:10:36;16.90;94.70
31729;DHT22;18309;43.658;1.312;2023-05-10T13:13:02;17.00;94.30
31729;DHT22;18309;43.658;1.312;2023-05-10T13:15:28;17.10;94.20
31729;DHT22;18309;43.658;1.312;2023-05-10T13:17:54;17.10;94.30
31729;DHT22;18309;43.658;1.312;2023-05-10T13:20:20;17.20;94.00
31729;DHT22;18309;43.658;1.312;2023-05-10T13:22:46;17.30;93.40
31729;DHT22;18309;43.658;1.312;2023-05-10T13:25:12;17.30;92.80
31729;DHT22;18309;43.658;1.312;2023-05-10T13:27:39;17.40;94.80
31729;DHT22;18309;43.658;1.312;2023-05-10T13:30:05;17.50;95.10
31729;DHT22;18309;43.658;1.312;2023-05-10T13:32:31;17.50;93.50
31729;DHT22;18309;43.658;1.312;2023-05-10T13:34:57;17.60;92.10
31729;DHT22;18309;43.658;1.312;2023-05-10T13:37:22;17.70;92.50
31729;DHT22;18309;43.658;1.312;2023-05-10T13:39:48;17.70;92.10
31729;DHT22;18309;43.658;1.312;2023-05-10T13:42:14;17.70;91.50
31729;DHT22;18309;43.658;1.312;2023-05-10T13:44:39;17.80;92.60
31729;DHT22;18309;43.658;1.312;2023-05-10T13:47:06;17.60;93.60
31729;DHT22;18309;43.658;1.312;2023-05-10T13:49:32;17.60;94.10
31729;DHT22;18309;43.658;1.312;2023-05-10T13:51:57;17.70;94.30
31729;DHT22;18309;43.658;1.312;2023-05-10T13:54:23;17.60;94.50
31729;DHT22;18309;43.658;1.312;2023-05-10T13:56:49;17.60;94.50
31729;DHT22;18309;43.658;1.312;2023-05-10T13:59:15;17.60;94.40
31729;DHT22;18309;43.658;1.312;2023-05-10T14:01:42;17.60;94.90
31729;DHT22;18309;43.658;1.312;2023-05-10T14:04:08;17.60;95.40
31729;DHT22;18309;43.658;1.312;2023-05-10T14:06:37;17.50;95.10
31729;DHT22;18309;43.658;1.312;2023-05-10T14:09:03;17.50;95.10
31729;DHT22;18309;43.658;1.312;2023-05-10T14:11:29;17.50;95.50
31729;DHT22;18309;43.658;1.312;2023-05-10T14:13:55;17.50;95.10
31729;DHT22;18309;43.658;1.312;2023-05-10T14:16:21;17.40;95.10
31729;DHT22;18309;43.658;1.312;2023-05-10T14:18:47;17.50;95.20
31729;DHT22;18309;43.658;1.312;2023-05-10T14:21:13;17.50;95.50
31729;DHT22;18309;43.658;1.312;2023-05-10T14:23:38;17.50;95.40
31729;DHT22;18309;43.658;1.312;2023-05-10T14:26:04;17.50;95.30
31729;DHT22;18309;43.658;1.312;2023-05-10T14:28:30;17.40;95.50
31729;DHT22;18309;43.658;1.312;2023-05-10T14:30:56;17.50;95.70
31729;DHT22;18309;43.658;1.312;2023-05-10T14:33:21;17.50;96.30
31729;DHT22;18309;43.658;1.312;2023-05-10T14:35:47;17.50;95.60
31729;DHT22;18309;43.658;1.312;2023-05-10T14:38:13;17.40;96.20
31729;DHT22;18309;43.658;1.312;2023-05-10T14:40:39;17.40;95.90
31729;DHT22;18309;43.658;1.312;2023-05-10T14:43:05;17.40;95.40
31729;DHT22;18309;43.658;1.312;2023-05-10T14:45:31;17.40;95.90
31729;DHT22;18309;43.658;1.312;2023-05-10T14:47:57;17.50;95.70
31729;DHT22;18309;43.658;1.312;2023-05-10T14:50:23;17.50;96.00
31729;DHT22;18309;43.658;1.312;2023-05-10T14:52:48;17.50;95.70
31729;DHT22;18309;43.658;1.312;2023-05-10T14:55:14;17.60;95.10
31729;DHT22;18309;43.658;1.312;2023-05-10T14:57:40;17.70;95.30
31729;DHT22;18309;43.658;1.312;2023-05-10T15:00:06;17.70;94.70
31729;DHT22;18309;43.658;1.312;2023-05-10T15:02:33;17.80;94.90
31729;DHT22;18309;43.658;1.312;2023-05-10T15:04:58;17.90;93.90
31729;DHT22;18309;43.658;1.312;2023-05-10T15:07:24;18.00;94.10
31729;DHT22;18309;43.658;1.312;2023-05-10T15:09:50;18.00;94.10
31729;DHT22;18309;43.658;1.312;2023-05-10T15:12:17;18.10;92.70
31729;DHT22;18309;43.658;1.312;2023-05-10T15:14:43;18.10;92.60
31729;DHT22;18309;43.658;1.312;2023-05-10T15:17:09;18.20;93.00
31729;DHT22;18309;43.658;1.312;2023-05-10T15:19:35;18.20;92.30
31729;DHT22;18309;43.658;1.312;2023-05-10T15:22:02;18.20;91.80
31729;DHT22;18309;43.658;1.312;2023-05-10T15:24:28;18.10;91.70
31729;DHT22;18309;43.658;1.312;2023-05-10T15:26:54;18.10;92.10
31729;DHT22;18309;43.658;1.312;2023-05-10T15:29:20;18.10;92.00
31729;DHT22;18309;43.658;1.312;2023-05-10T15:31:47;18.10;91.20
31729;DHT22;18309;43.658;1.312;2023-05-10T15:34:13;18.10;91.30
31729;DHT22;18309;43.658;1.312;2023-05-10T15:36:39;18.00;91.50
31729;DHT22;18309;43.658;1.312;2023-05-10T15:39:05;18.00;91.70
31729;DHT22;18309;43.658;1.312;2023-05-10T15:41:31;18.00;92.40
31729;DHT22;18309;43.658;1.312;2023-05-10T15:43:58;18.10;92.90
31729;DHT22;18309;43.658;1.312;2023-05-10T15:46:30;18.10;92.70
31729;DHT22;18309;43.658;1.312;2023-05-10T15:48:57;18.10;92.00
31729;DHT22;18309;43.658;1.312;2023-05-10T15:51:24;18.10;92.60
31729;DHT22;18309;43.658;1.312;2023-05-10T15:53:50;18.10;92.10
31729;DHT22;18309;43.658;1.312;2023-05-10T15:56:15;18.10;91.80
31729;DHT22;18309;43.658;1.312;2023-05-10T15:58:41;18.20;92.70
31729;DHT22;18309;43.658;1.312;2023-05-10T16:01:09;18.20;92.80